Aérodrome :
LOGIN :

S'inscrire | Disclaimer

   EN    FR    IT 

 










Légende :    VFR   VFR Marginal   IFR   IFR Intensif   IFR Très Intensif
Visi : 
Plafond : 
>= 8 km
>= 3000ft
5 à 8 km
1000 à 3000 ft
1500m à 5 km
500 à 1000 ft
800 à 1500m
200 à 500 ft
< 800m
< 200 ft
Symboles :   Orages  Brouillard  Fortes neiges  Fortes précipitations  Vent > 20 kt
SIGMETs :   Divers  Orages  Givrage  Turbulence  Onde Orograph.  Cendres Volcan.






- Altitude de l'aérodrome : 101 ft
- Code IATA : HAD


ESMT - Halmstad

DERNIER METAR :
  • 050450Z AUTO 09010KT 9999 -RA BKN020/// BKN063/// 12/10 Q0989

METARs EXPIRÉS :
  • 050420Z AUTO 09010KT 9000 -RA FEW021/// 11/10 Q0989
  • 050350Z AUTO 08008KT 9999 -RA FEW022/// SCT031/// 11/10 Q0990 REDZ
  • 050320Z AUTO 09009KT 060V120 9999 -RA FEW038/// SCT045/// 12/09 Q0990 REDZ
  • 050250Z AUTO 09009KT 060V120 9999 DZ FEW034/// SCT039/// BKN068/// 12/09 Q0990
  • 050220Z AUTO 10010KT 060V130 9999 -RA SCT065/// 12/09 Q0990

TAF TAF ESMT
Valide du 05 à 05h jusqu'au 05 à 12h UTC


050424Z 0505/0512 10010KT 8000 -RA BKN020
TEMPO 0505/0508 3000 SHRA BKN008 BKN020CB
BECMG 0505/0508 23010KT
TEMPO 0508/0512 SCT020TCU



MET'MAP, la Météo Aéronautique d'un coup d'oeil ! - Copyright ORBIFLY Décembre 2007 - Disclaimer

ORBIFLY MET'MAP TEAM :

Programmation & Développement : Alexandra Zaïnal
Sur une idée originale de : Baudouin d'Aumeries
Assistance à la programmation : Marc-Olivier Méhu
Soutien technique & logistique : Manuel Goepfert

Contact : metmap@orbifly.com




SOURCES & CREDITS :

   NOAA